sensor_id;sensor_type;location;lat;lon;timestamp;temperature;humidity
54178;DHT22;40085;53.004;6.770;2024-02-14T00:02:09;7.20;99.90
54178;DHT22;40085;53.004;6.770;2024-02-14T00:04:34;6.60;99.90
54178;DHT22;40085;53.004;6.770;2024-02-14T00:07:00;6.70;99.90
54178;DHT22;40085;53.004;6.770;2024-02-14T00:09:26;6.70;99.90
54178;DHT22;40085;53.004;6.770;2024-02-14T00:11:51;6.70;99.90
54178;DHT22;40085;53.004;6.770;2024-02-14T00:14:17;6.70;99.90
54178;DHT22;40085;53.004;6.770;2024-02-14T00:16:45;6.80;99.90
54178;DHT22;40085;53.004;6.770;2024-02-14T00:19:11;6.70;99.90
54178;DHT22;40085;53.004;6.770;2024-02-14T00:21:37;6.70;99.90
54178;DHT22;40085;53.004;6.770;2024-02-14T00:24:03;6.70;99.90
54178;DHT22;40085;53.004;6.770;2024-02-14T00:26:30;6.70;99.90
54178;DHT22;40085;53.004;6.770;2024-02-14T00:28:56;6.70;99.90
54178;DHT22;40085;53.004;6.770;2024-02-14T00:31:21;6.70;99.90
54178;DHT22;40085;53.004;6.770;2024-02-14T00:33:47;6.70;99.90
54178;DHT22;40085;53.004;6.770;2024-02-14T00:36:13;6.70;99.90
54178;DHT22;40085;53.004;6.770;2024-02-14T00:38:39;6.70;99.90
54178;DHT22;40085;53.004;6.770;2024-02-14T00:41:04;6.70;99.90
54178;DHT22;40085;53.004;6.770;2024-02-14T00:43:30;6.70;99.90
54178;DHT22;40085;53.004;6.770;2024-02-14T00:45:56;6.70;99.90
54178;DHT22;40085;53.004;6.770;2024-02-14T00:48:22;6.80;99.90
54178;DHT22;40085;53.004;6.770;2024-02-14T00:50:48;6.80;99.90
54178;DHT22;40085;53.004;6.770;2024-02-14T00:53:14;7.60;99.90
54178;DHT22;40085;53.004;6.770;2024-02-14T00:55:46;6.80;99.90
54178;DHT22;40085;53.004;6.770;2024-02-14T00:58:12;6.80;99.90
54178;DHT22;40085;53.004;6.770;2024-02-14T01:00:37;6.80;99.90
54178;DHT22;40085;53.004;6.770;2024-02-14T01:03:03;6.80;99.90
54178;DHT22;40085;53.004;6.770;2024-02-14T01:05:29;6.80;99.90
54178;DHT22;40085;53.004;6.770;2024-02-14T01:07:54;6.90;99.90
54178;DHT22;40085;53.004;6.770;2024-02-14T01:10:20;6.80;99.90
54178;DHT22;40085;53.004;6.770;2024-02-14T01:12:46;7.80;99.90
54178;DHT22;40085;53.004;6.770;2024-02-14T01:15:12;7.10;99.90
54178;DHT22;40085;53.004;6.770;2024-02-14T01:17:38;6.90;99.90
54178;DHT22;40085;53.004;6.770;2024-02-14T01:20:05;7.90;99.90
54178;DHT22;40085;53.004;6.770;2024-02-14T01:22:32;6.90;99.90
54178;DHT22;40085;53.004;6.770;2024-02-14T01:24:58;7.10;99.90
54178;DHT22;40085;53.004;6.770;2024-02-14T01:27:24;7.00;99.90
54178;DHT22;40085;53.004;6.770;2024-02-14T01:29:50;7.00;99.90
54178;DHT22;40085;53.004;6.770;2024-02-14T01:32:16;7.00;99.90
54178;DHT22;40085;53.004;6.770;2024-02-14T01:34:42;7.00;99.90
54178;DHT22;40085;53.004;6.770;2024-02-14T01:37:08;7.00;99.90
54178;DHT22;40085;53.004;6.770;2024-02-14T01:39:35;7.10;99.90
54178;DHT22;40085;53.004;6.770;2024-02-14T01:42:01;7.30;99.90
54178;DHT22;40085;53.004;6.770;2024-02-14T01:44:32;7.10;99.90
54178;DHT22;40085;53.004;6.770;2024-02-14T01:46:58;7.00;99.90
54178;DHT22;40085;53.004;6.770;2024-02-14T01:49:24;7.00;99.90
54178;DHT22;40085;53.004;6.770;2024-02-14T01:51:54;7.10;99.90
54178;DHT22;40085;53.004;6.770;2024-02-14T01:54:32;7.50;99.90
54178;DHT22;40085;53.004;6.770;2024-02-14T01:57:05;7.20;99.90
54178;DHT22;40085;53.004;6.770;2024-02-14T01:59:33;7.20;99.90
54178;DHT22;40085;53.004;6.770;2024-02-14T02:02:00;7.10;99.90
54178;DHT22;40085;53.004;6.770;2024-02-14T02:04:26;7.20;99.90
54178;DHT22;40085;53.004;6.770;2024-02-14T02:06:51;7.90;99.90
54178;DHT22;40085;53.004;6.770;2024-02-14T02:09:22;7.30;99.90
54178;DHT22;40085;53.004;6.770;2024-02-14T02:11:49;7.30;99.90
54178;DHT22;40085;53.004;6.770;2024-02-14T02:14:15;7.30;99.90
54178;DHT22;40085;53.004;6.770;2024-02-14T02:16:42;7.40;99.90
54178;DHT22;40085;53.004;6.770;2024-02-14T02:19:08;7.50;99.90
54178;DHT22;40085;53.004;6.770;2024-02-14T02:21:38;7.40;99.90
54178;DHT22;40085;53.004;6.770;2024-02-14T02:24:04;7.40;99.90
54178;DHT22;40085;53.004;6.770;2024-02-14T02:26:30;7.40;99.90
54178;DHT22;40085;53.004;6.770;2024-02-14T02:28:56;7.70;99.90
54178;DHT22;40085;53.004;6.770;2024-02-14T02:31:22;7.30;99.90
54178;DHT22;40085;53.004;6.770;2024-02-14T02:33:48;7.40;99.90
54178;DHT22;40085;53.004;6.770;2024-02-14T02:36:14;7.90;99.90
54178;DHT22;40085;53.004;6.770;2024-02-14T02:38:41;7.50;99.90
54178;DHT22;40085;53.004;6.770;2024-02-14T02:41:07;7.50;99.90
54178;DHT22;40085;53.004;6.770;2024-02-14T02:43:33;7.60;99.90
54178;DHT22;40085;53.004;6.770;2024-02-14T02:45:59;7.60;99.90
54178;DHT22;40085;53.004;6.770;2024-02-14T02:48:25;7.70;99.90
54178;DHT22;40085;53.004;6.770;2024-02-14T02:50:51;7.60;99.90
54178;DHT22;40085;53.004;6.770;2024-02-14T02:53:17;7.70;99.90
54178;DHT22;40085;53.004;6.770;2024-02-14T02:55:56;7.70;99.90
54178;DHT22;40085;53.004;6.770;2024-02-14T02:58:22;7.70;99.90
54178;DHT22;40085;53.004;6.770;2024-02-14T03:00:48;7.70;99.90
54178;DHT22;40085;53.004;6.770;2024-02-14T03:03:19;7.90;99.90
54178;DHT22;40085;53.004;6.770;2024-02-14T03:05:44;7.80;99.90
54178;DHT22;40085;53.004;6.770;2024-02-14T03:08:11;7.80;99.90
54178;DHT22;40085;53.004;6.770;2024-02-14T03:10:41;8.20;99.90
54178;DHT22;40085;53.004;6.770;2024-02-14T03:13:07;7.80;99.90
54178;DHT22;40085;53.004;6.770;2024-02-14T03:15:37;7.90;99.90
54178;DHT22;40085;53.004;6.770;2024-02-14T03:18:03;7.90;99.90
54178;DHT22;40085;53.004;6.770;2024-02-14T03:20:33;7.90;99.90
54178;DHT22;40085;53.004;6.770;2024-02-14T03:22:59;8.40;99.90
54178;DHT22;40085;53.004;6.770;2024-02-14T03:25:24;8.50;99.90
54178;DHT22;40085;53.004;6.770;2024-02-14T03:27:51;8.00;99.90
54178;DHT22;40085;53.004;6.770;2024-02-14T03:30:19;7.90;99.90
54178;DHT22;40085;53.004;6.770;2024-02-14T03:32:46;8.50;99.90
54178;DHT22;40085;53.004;6.770;2024-02-14T03:35:12;8.00;99.90
54178;DHT22;40085;53.004;6.770;2024-02-14T03:37:41;8.00;99.90
54178;DHT22;40085;53.004;6.770;2024-02-14T03:40:08;8.00;99.90
54178;DHT22;40085;53.004;6.770;2024-02-14T03:42:35;8.10;99.90
54178;DHT22;40085;53.004;6.770;2024-02-14T03:45:01;8.10;99.90
54178;DHT22;40085;53.004;6.770;2024-02-14T03:47:31;8.10;99.90
54178;DHT22;40085;53.004;6.770;2024-02-14T03:49:58;8.50;99.90
54178;DHT22;40085;53.004;6.770;2024-02-14T03:52:24;8.80;99.90
54178;DHT22;40085;53.004;6.770;2024-02-14T03:54:50;8.10;99.90
54178;DHT22;40085;53.004;6.770;2024-02-14T03:57:22;8.20;99.90
54178;DHT22;40085;53.004;6.770;2024-02-14T03:59:50;9.00;99.90
54178;DHT22;40085;53.004;6.770;2024-02-14T04:02:17;8.20;99.90
54178;DHT22;40085;53.004;6.770;2024-02-14T04:04:44;8.30;99.90
54178;DHT22;40085;53.004;6.770;2024-02-14T04:07:12;8.30;99.90
54178;DHT22;40085;53.004;6.770;2024-02-14T04:09:38;8.30;99.90
54178;DHT22;40085;53.004;6.770;2024-02-14T04:12:04;8.40;99.90
54178;DHT22;40085;53.004;6.770;2024-02-14T04:14:31;8.40;99.90
54178;DHT22;40085;53.004;6.770;2024-02-14T04:16:57;8.40;99.90
54178;DHT22;40085;53.004;6.770;2024-02-14T04:19:22;8.40;99.90
54178;DHT22;40085;53.004;6.770;2024-02-14T04:21:48;8.50;99.90
54178;DHT22;40085;53.004;6.770;2024-02-14T04:24:14;8.50;99.90
54178;DHT22;40085;53.004;6.770;2024-02-14T04:26:40;8.90;99.90
54178;DHT22;40085;53.004;6.770;2024-02-14T04:29:05;8.60;99.90
54178;DHT22;40085;53.004;6.770;2024-02-14T04:31:33;8.60;99.90
54178;DHT22;40085;53.004;6.770;2024-02-14T04:33:58;8.60;99.90
54178;DHT22;40085;53.004;6.770;2024-02-14T04:36:24;8.60;99.90
54178;DHT22;40085;53.004;6.770;2024-02-14T04:38:50;8.60;99.90
54178;DHT22;40085;53.004;6.770;2024-02-14T04:41:16;8.60;99.90
54178;DHT22;40085;53.004;6.770;2024-02-14T04:43:49;8.70;99.90
54178;DHT22;40085;53.004;6.770;2024-02-14T04:46:28;8.70;99.90
54178;DHT22;40085;53.004;6.770;2024-02-14T04:49:02;8.70;99.90
54178;DHT22;40085;53.004;6.770;2024-02-14T04:51:30;8.70;99.90
54178;DHT22;40085;53.004;6.770;2024-02-14T04:53:57;8.80;99.90
54178;DHT22;40085;53.004;6.770;2024-02-14T04:56:37;8.80;99.90
54178;DHT22;40085;53.004;6.770;2024-02-14T04:59:03;8.80;99.90
54178;DHT22;40085;53.004;6.770;2024-02-14T05:01:30;8.90;99.90
54178;DHT22;40085;53.004;6.770;2024-02-14T05:03:57;9.00;99.90
54178;DHT22;40085;53.004;6.770;2024-02-14T05:06:22;8.90;99.90
54178;DHT22;40085;53.004;6.770;2024-02-14T05:08:48;8.90;99.90
54178;DHT22;40085;53.004;6.770;2024-02-14T05:11:13;9.00;99.90
54178;DHT22;40085;53.004;6.770;2024-02-14T05:13:40;8.90;99.90
54178;DHT22;40085;53.004;6.770;2024-02-14T05:16:07;8.90;99.90
54178;DHT22;40085;53.004;6.770;2024-02-14T05:18:34;9.00;99.90
54178;DHT22;40085;53.004;6.770;2024-02-14T05:21:00;9.00;99.90
54178;DHT22;40085;53.004;6.770;2024-02-14T05:23:25;9.40;99.90
54178;DHT22;40085;53.004;6.770;2024-02-14T05:25:51;9.00;99.90
54178;DHT22;40085;53.004;6.770;2024-02-14T05:28:16;9.10;99.90
54178;DHT22;40085;53.004;6.770;2024-02-14T05:30:44;9.10;99.90
54178;DHT22;40085;53.004;6.770;2024-02-14T05:33:10;9.10;99.90
54178;DHT22;40085;53.004;6.770;2024-02-14T05:35:36;9.10;99.90
54178;DHT22;40085;53.004;6.770;2024-02-14T05:38:02;9.10;99.90
54178;DHT22;40085;53.004;6.770;2024-02-14T05:40:29;9.20;99.90
54178;DHT22;40085;53.004;6.770;2024-02-14T05:42:55;9.50;99.90
54178;DHT22;40085;53.004;6.770;2024-02-14T05:45:21;9.20;99.90
54178;DHT22;40085;53.004;6.770;2024-02-14T05:47:47;9.20;99.90
54178;DHT22;40085;53.004;6.770;2024-02-14T05:50:13;9.40;99.90
54178;DHT22;40085;53.004;6.770;2024-02-14T05:52:39;9.20;99.90
54178;DHT22;40085;53.004;6.770;2024-02-14T05:55:05;9.20;99.90
54178;DHT22;40085;53.004;6.770;2024-02-14T05:57:37;9.30;99.90
54178;DHT22;40085;53.004;6.770;2024-02-14T06:00:03;9.30;99.90
54178;DHT22;40085;53.004;6.770;2024-02-14T06:02:29;9.30;99.90
54178;DHT22;40085;53.004;6.770;2024-02-14T06:04:55;9.30;99.90
54178;DHT22;40085;53.004;6.770;2024-02-14T06:07:21;9.30;99.90
54178;DHT22;40085;53.004;6.770;2024-02-14T06:09:47;9.30;99.90
54178;DHT22;40085;53.004;6.770;2024-02-14T06:12:12;9.40;99.90
54178;DHT22;40085;53.004;6.770;2024-02-14T06:14:38;9.30;99.90
54178;DHT22;40085;53.004;6.770;2024-02-14T06:17:04;9.40;99.90
54178;DHT22;40085;53.004;6.770;2024-02-14T06:19:30;9.40;99.90
54178;DHT22;40085;53.004;6.770;2024-02-14T06:21:57;9.40;99.90
54178;DHT22;40085;53.004;6.770;2024-02-14T06:24:24;9.30;99.90
54178;DHT22;40085;53.004;6.770;2024-02-14T06:26:50;9.40;99.90
54178;DHT22;40085;53.004;6.770;2024-02-14T06:29:15;9.40;99.90
54178;DHT22;40085;53.004;6.770;2024-02-14T06:31:41;9.50;99.90
54178;DHT22;40085;53.004;6.770;2024-02-14T06:34:07;9.40;99.90
54178;DHT22;40085;53.004;6.770;2024-02-14T06:36:33;9.40;99.90
54178;DHT22;40085;53.004;6.770;2024-02-14T06:38:59;9.50;99.90
54178;DHT22;40085;53.004;6.770;2024-02-14T06:41:25;9.40;99.90
54178;DHT22;40085;53.004;6.770;2024-02-14T06:43:50;9.50;99.90
54178;DHT22;40085;53.004;6.770;2024-02-14T06:46:16;9.70;99.90
54178;DHT22;40085;53.004;6.770;2024-02-14T06:48:41;9.60;99.90
54178;DHT22;40085;53.004;6.770;2024-02-14T06:56:13;9.50;99.90
54178;DHT22;40085;53.004;6.770;2024-02-14T06:58:39;9.60;99.90
54178;DHT22;40085;53.004;6.770;2024-02-14T07:01:04;9.60;99.90
54178;DHT22;40085;53.004;6.770;2024-02-14T07:03:30;9.60;99.90
54178;DHT22;40085;53.004;6.770;2024-02-14T07:05:56;9.70;99.90
54178;DHT22;40085;53.004;6.770;2024-02-14T07:08:21;9.70;99.90
54178;DHT22;40085;53.004;6.770;2024-02-14T07:10:47;9.80;99.90
54178;DHT22;40085;53.004;6.770;2024-02-14T07:13:12;9.70;99.90
54178;DHT22;40085;53.004;6.770;2024-02-14T07:15:39;9.90;99.90
54178;DHT22;40085;53.004;6.770;2024-02-14T07:18:05;9.70;99.90
54178;DHT22;40085;53.004;6.770;2024-02-14T07:20:31;9.80;99.90
54178;DHT22;40085;53.004;6.770;2024-02-14T07:22:56;9.80;99.90
54178;DHT22;40085;53.004;6.770;2024-02-14T07:25:22;9.80;99.90
54178;DHT22;40085;53.004;6.770;2024-02-14T07:27:49;9.80;99.90
54178;DHT22;40085;53.004;6.770;2024-02-14T07:30:18;9.90;99.90
54178;DHT22;40085;53.004;6.770;2024-02-14T07:32:46;9.90;99.90
54178;DHT22;40085;53.004;6.770;2024-02-14T07:35:12;10.00;99.90
54178;DHT22;40085;53.004;6.770;2024-02-14T07:37:42;10.00;99.90
54178;DHT22;40085;53.004;6.770;2024-02-14T07:40:08;10.20;99.90
54178;DHT22;40085;53.004;6.770;2024-02-14T07:42:34;10.00;99.90
54178;DHT22;40085;53.004;6.770;2024-02-14T07:44:59;10.30;99.90
54178;DHT22;40085;53.004;6.770;2024-02-14T07:47:25;10.30;99.90
54178;DHT22;40085;53.004;6.770;2024-02-14T07:49:50;10.20;99.90
54178;DHT22;40085;53.004;6.770;2024-02-14T07:52:18;10.60;99.90
54178;DHT22;40085;53.004;6.770;2024-02-14T07:54:44;10.40;99.90
54178;DHT22;40085;53.004;6.770;2024-02-14T07:57:16;10.20;99.90
54178;DHT22;40085;53.004;6.770;2024-02-14T07:59:42;10.10;99.90
54178;DHT22;40085;53.004;6.770;2024-02-14T08:02:07;10.30;99.90
54178;DHT22;40085;53.004;6.770;2024-02-14T08:04:33;10.10;99.90
54178;DHT22;40085;53.004;6.770;2024-02-14T08:06:59;10.20;99.90
54178;DHT22;40085;53.004;6.770;2024-02-14T08:09:24;10.20;99.90
54178;DHT22;40085;53.004;6.770;2024-02-14T08:11:50;10.20;99.90
54178;DHT22;40085;53.004;6.770;2024-02-14T08:14:18;10.20;99.90
54178;DHT22;40085;53.004;6.770;2024-02-14T08:16:44;10.10;99.90
54178;DHT22;40085;53.004;6.770;2024-02-14T08:19:09;10.50;99.90
54178;DHT22;40085;53.004;6.770;2024-02-14T08:21:35;10.30;99.90
54178;DHT22;40085;53.004;6.770;2024-02-14T08:24:01;10.20;99.90
54178;DHT22;40085;53.004;6.770;2024-02-14T08:26:27;10.20;99.90
54178;DHT22;40085;53.004;6.770;2024-02-14T08:28:53;10.50;99.90
54178;DHT22;40085;53.004;6.770;2024-02-14T08:31:20;10.30;99.90
54178;DHT22;40085;53.004;6.770;2024-02-14T08:33:45;10.30;99.90
54178;DHT22;40085;53.004;6.770;2024-02-14T08:36:11;10.40;99.90
54178;DHT22;40085;53.004;6.770;2024-02-14T08:38:36;10.70;99.90
54178;DHT22;40085;53.004;6.770;2024-02-14T08:41:02;10.40;99.90
54178;DHT22;40085;53.004;6.770;2024-02-14T08:43:29;10.50;99.90
54178;DHT22;40085;53.004;6.770;2024-02-14T08:45:55;10.50;99.90
54178;DHT22;40085;53.004;6.770;2024-02-14T08:48:21;10.50;99.90
54178;DHT22;40085;53.004;6.770;2024-02-14T08:50:47;10.50;99.90
54178;DHT22;40085;53.004;6.770;2024-02-14T08:53:13;10.70;99.90
54178;DHT22;40085;53.004;6.770;2024-02-14T08:55:40;10.60;99.90
54178;DHT22;40085;53.004;6.770;2024-02-14T08:58:12;10.50;99.90
54178;DHT22;40085;53.004;6.770;2024-02-14T09:00:38;10.80;99.90
54178;DHT22;40085;53.004;6.770;2024-02-14T09:03:05;10.50;99.90
54178;DHT22;40085;53.004;6.770;2024-02-14T09:05:31;10.50;99.90
54178;DHT22;40085;53.004;6.770;2024-02-14T09:07:57;10.80;99.90
54178;DHT22;40085;53.004;6.770;2024-02-14T09:10:23;10.60;99.90
54178;DHT22;40085;53.004;6.770;2024-02-14T09:12:49;10.50;99.90
54178;DHT22;40085;53.004;6.770;2024-02-14T09:15:15;10.60;99.90
54178;DHT22;40085;53.004;6.770;2024-02-14T09:17:41;10.60;99.90
54178;DHT22;40085;53.004;6.770;2024-02-14T09:20:08;10.50;99.90
54178;DHT22;40085;53.004;6.770;2024-02-14T09:22:37;10.50;99.90
54178;DHT22;40085;53.004;6.770;2024-02-14T09:25:04;10.40;99.90
54178;DHT22;40085;53.004;6.770;2024-02-14T09:27:30;10.60;99.90
54178;DHT22;40085;53.004;6.770;2024-02-14T09:29:56;10.50;99.90
54178;DHT22;40085;53.004;6.770;2024-02-14T09:32:22;10.50;99.90
54178;DHT22;40085;53.004;6.770;2024-02-14T09:34:47;10.60;99.90
54178;DHT22;40085;53.004;6.770;2024-02-14T09:37:13;10.50;99.90
54178;DHT22;40085;53.004;6.770;2024-02-14T09:39:39;10.60;99.90
54178;DHT22;40085;53.004;6.770;2024-02-14T09:42:13;10.70;99.90
54178;DHT22;40085;53.004;6.770;2024-02-14T09:44:40;10.70;99.90
54178;DHT22;40085;53.004;6.770;2024-02-14T09:47:07;11.10;99.90
54178;DHT22;40085;53.004;6.770;2024-02-14T09:49:35;10.80;99.90
54178;DHT22;40085;53.004;6.770;2024-02-14T09:52:05;10.70;99.90
54178;DHT22;40085;53.004;6.770;2024-02-14T09:54:38;10.80;99.90
54178;DHT22;40085;53.004;6.770;2024-02-14T09:57:12;10.70;99.90
54178;DHT22;40085;53.004;6.770;2024-02-14T09:59:45;11.00;99.90
54178;DHT22;40085;53.004;6.770;2024-02-14T10:02:12;10.70;99.90
54178;DHT22;40085;53.004;6.770;2024-02-14T10:04:38;10.60;99.90
54178;DHT22;40085;53.004;6.770;2024-02-14T10:07:04;10.70;99.90
54178;DHT22;40085;53.004;6.770;2024-02-14T10:09:30;12.20;99.90
54178;DHT22;40085;53.004;6.770;2024-02-14T10:11:56;11.00;99.90
54178;DHT22;40085;53.004;6.770;2024-02-14T10:14:26;11.30;99.90
54178;DHT22;40085;53.004;6.770;2024-02-14T10:16:52;10.80;99.90
54178;DHT22;40085;53.004;6.770;2024-02-14T10:19:18;11.10;99.90
54178;DHT22;40085;53.004;6.770;2024-02-14T10:24:20;11.20;99.90
54178;DHT22;40085;53.004;6.770;2024-02-14T10:26:46;10.80;99.90
54178;DHT22;40085;53.004;6.770;2024-02-14T10:29:12;11.20;99.90
54178;DHT22;40085;53.004;6.770;2024-02-14T10:31:40;11.20;99.90
54178;DHT22;40085;53.004;6.770;2024-02-14T10:34:06;11.00;99.90
54178;DHT22;40085;53.004;6.770;2024-02-14T13:10:28;11.60;99.90
54178;DHT22;40085;53.004;6.770;2024-02-14T13:12:54;11.60;99.90
54178;DHT22;40085;53.004;6.770;2024-02-14T13:15:20;11.60;99.90
54178;DHT22;40085;53.004;6.770;2024-02-14T13:17:46;11.50;99.90
54178;DHT22;40085;53.004;6.770;2024-02-14T13:20:11;11.50;99.90
54178;DHT22;40085;53.004;6.770;2024-02-14T13:22:37;11.50;99.90
54178;DHT22;40085;53.004;6.770;2024-02-14T13:25:03;11.40;99.90
54178;DHT22;40085;53.004;6.770;2024-02-14T13:27:30;11.50;99.90
54178;DHT22;40085;53.004;6.770;2024-02-14T13:29:56;11.50;99.90
54178;DHT22;40085;53.004;6.770;2024-02-14T13:32:21;11.50;99.90
54178;DHT22;40085;53.004;6.770;2024-02-14T13:34:47;11.40;99.90
54178;DHT22;40085;53.004;6.770;2024-02-14T13:37:13;11.50;99.90
54178;DHT22;40085;53.004;6.770;2024-02-14T13:39:41;11.40;99.90
54178;DHT22;40085;53.004;6.770;2024-02-14T13:42:06;11.40;99.90
54178;DHT22;40085;53.004;6.770;2024-02-14T13:44:33;11.80;99.90
54178;DHT22;40085;53.004;6.770;2024-02-14T13:46:59;11.40;99.90
54178;DHT22;40085;53.004;6.770;2024-02-14T13:49:25;11.40;99.90
54178;DHT22;40085;53.004;6.770;2024-02-14T13:51:52;11.40;99.90
54178;DHT22;40085;53.004;6.770;2024-02-14T13:54:24;11.40;99.90
54178;DHT22;40085;53.004;6.770;2024-02-14T13:56:56;11.40;99.90
54178;DHT22;40085;53.004;6.770;2024-02-14T13:59:28;11.40;99.90
54178;DHT22;40085;53.004;6.770;2024-02-14T14:01:54;11.40;99.90
54178;DHT22;40085;53.004;6.770;2024-02-14T14:04:20;11.50;99.90
54178;DHT22;40085;53.004;6.770;2024-02-14T14:06:48;11.50;99.90
54178;DHT22;40085;53.004;6.770;2024-02-14T14:09:14;11.50;99.90
54178;DHT22;40085;53.004;6.770;2024-02-14T14:11:40;11.50;99.90
54178;DHT22;40085;53.004;6.770;2024-02-14T14:14:06;11.50;99.90
54178;DHT22;40085;53.004;6.770;2024-02-14T14:16:31;11.50;99.90
54178;DHT22;40085;53.004;6.770;2024-02-14T14:19:00;11.60;99.90
54178;DHT22;40085;53.004;6.770;2024-02-14T14:21:26;11.60;99.90
54178;DHT22;40085;53.004;6.770;2024-02-14T14:23:52;11.60;99.90
54178;DHT22;40085;53.004;6.770;2024-02-14T14:26:18;11.60;99.90
54178;DHT22;40085;53.004;6.770;2024-02-14T14:28:44;11.50;99.90
54178;DHT22;40085;53.004;6.770;2024-02-14T14:31:09;11.50;99.90
54178;DHT22;40085;53.004;6.770;2024-02-14T14:33:38;11.50;99.90
54178;DHT22;40085;53.004;6.770;2024-02-14T14:36:04;11.50;99.90
54178;DHT22;40085;53.004;6.770;2024-02-14T14:38:30;11.60;99.90
54178;DHT22;40085;53.004;6.770;2024-02-14T14:40:56;11.50;99.90
54178;DHT22;40085;53.004;6.770;2024-02-14T14:43:22;11.60;99.90
54178;DHT22;40085;53.004;6.770;2024-02-14T14:45:48;11.50;99.90
54178;DHT22;40085;53.004;6.770;2024-02-14T14:48:15;11.50;99.90
54178;DHT22;40085;53.004;6.770;2024-02-14T14:50:40;11.60;99.90
54178;DHT22;40085;53.004;6.770;2024-02-14T14:53:07;11.50;99.90
54178;DHT22;40085;53.004;6.770;2024-02-14T14:55:50;11.50;99.90
54178;DHT22;40085;53.004;6.770;2024-02-14T14:58:24;11.50;99.90
54178;DHT22;40085;53.004;6.770;2024-02-14T15:00:59;11.50;99.90
54178;DHT22;40085;53.004;6.770;2024-02-14T15:03:25;11.50;99.90
54178;DHT22;40085;53.004;6.770;2024-02-14T15:05:52;11.50;99.90
54178;DHT22;40085;53.004;6.770;2024-02-14T15:08:19;11.50;99.90
54178;DHT22;40085;53.004;6.770;2024-02-14T15:10:53;11.50;99.90
54178;DHT22;40085;53.004;6.770;2024-02-14T15:13:19;11.50;99.90
54178;DHT22;40085;53.004;6.770;2024-02-14T15:15:45;11.40;99.90
54178;DHT22;40085;53.004;6.770;2024-02-14T15:18:10;11.50;99.90
54178;DHT22;40085;53.004;6.770;2024-02-14T15:20:36;11.40;99.90
54178;DHT22;40085;53.004;6.770;2024-02-14T15:23:03;11.40;99.90
54178;DHT22;40085;53.004;6.770;2024-02-14T15:25:29;11.50;99.90
54178;DHT22;40085;53.004;6.770;2024-02-14T15:27:55;11.50;99.90
54178;DHT22;40085;53.004;6.770;2024-02-14T15:30:22;11.50;99.90
54178;DHT22;40085;53.004;6.770;2024-02-14T15:33:06;11.50;99.90
54178;DHT22;40085;53.004;6.770;2024-02-14T15:35:56;11.50;99.90
54178;DHT22;40085;53.004;6.770;2024-02-14T15:38:22;11.50;99.90
54178;DHT22;40085;53.004;6.770;2024-02-14T15:40:49;11.50;99.90
54178;DHT22;40085;53.004;6.770;2024-02-14T15:43:18;11.50;99.90
54178;DHT22;40085;53.004;6.770;2024-02-14T15:45:44;11.50;99.90
54178;DHT22;40085;53.004;6.770;2024-02-14T15:48:10;11.50;99.90
54178;DHT22;40085;53.004;6.770;2024-02-14T15:50:38;11.40;99.90
54178;DHT22;40085;53.004;6.770;2024-02-14T15:53:04;11.50;99.90
54178;DHT22;40085;53.004;6.770;2024-02-14T15:55:37;11.40;99.90
54178;DHT22;40085;53.004;6.770;2024-02-14T15:58:03;11.40;99.90
54178;DHT22;40085;53.004;6.770;2024-02-14T16:00:29;11.40;99.90
54178;DHT22;40085;53.004;6.770;2024-02-14T16:02:58;11.40;99.90
54178;DHT22;40085;53.004;6.770;2024-02-14T16:05:25;11.40;99.90
54178;DHT22;40085;53.004;6.770;2024-02-14T16:07:52;11.40;99.90
54178;DHT22;40085;53.004;6.770;2024-02-14T16:10:18;11.40;99.90
54178;DHT22;40085;53.004;6.770;2024-02-14T16:12:44;11.40;99.90
54178;DHT22;40085;53.004;6.770;2024-02-14T16:15:11;11.40;99.90
54178;DHT22;40085;53.004;6.770;2024-02-14T16:17:37;11.40;99.90
54178;DHT22;40085;53.004;6.770;2024-02-14T16:20:03;11.40;99.90
54178;DHT22;40085;53.004;6.770;2024-02-14T16:22:32;11.40;99.90
54178;DHT22;40085;53.004;6.770;2024-02-14T16:24:58;11.40;99.90
54178;DHT22;40085;53.004;6.770;2024-02-14T16:27:24;11.40;99.90
54178;DHT22;40085;53.004;6.770;2024-02-14T16:29:50;11.40;99.90
54178;DHT22;40085;53.004;6.770;2024-02-14T16:32:15;11.40;99.90
54178;DHT22;40085;53.004;6.770;2024-02-14T16:34:41;11.40;99.90
54178;DHT22;40085;53.004;6.770;2024-02-14T16:37:09;11.40;99.90
54178;DHT22;40085;53.004;6.770;2024-02-14T16:39:42;11.40;99.90
54178;DHT22;40085;53.004;6.770;2024-02-14T16:42:08;11.50;99.90
54178;DHT22;40085;53.004;6.770;2024-02-14T16:44:34;11.40;99.90
54178;DHT22;40085;53.004;6.770;2024-02-14T16:47:01;11.40;99.90
54178;DHT22;40085;53.004;6.770;2024-02-14T16:49:27;11.40;99.90
54178;DHT22;40085;53.004;6.770;2024-02-14T16:51:52;11.70;99.90
54178;DHT22;40085;53.004;6.770;2024-02-14T16:54:18;11.40;99.90
54178;DHT22;40085;53.004;6.770;2024-02-14T16:56:44;11.40;99.90
54178;DHT22;40085;53.004;6.770;2024-02-14T16:59:16;11.40;99.90
54178;DHT22;40085;53.004;6.770;2024-02-14T17:01:41;11.40;99.90
54178;DHT22;40085;53.004;6.770;2024-02-14T17:04:08;11.30;99.90
54178;DHT22;40085;53.004;6.770;2024-02-14T17:06:33;11.30;99.90
54178;DHT22;40085;53.004;6.770;2024-02-14T17:08:59;11.40;99.90
54178;DHT22;40085;53.004;6.770;2024-02-14T17:11:24;11.60;99.90
54178;DHT22;40085;53.004;6.770;2024-02-14T17:13:51;11.40;99.90
54178;DHT22;40085;53.004;6.770;2024-02-14T17:16:18;11.30;99.90
54178;DHT22;40085;53.004;6.770;2024-02-14T17:18:44;11.30;99.90
54178;DHT22;40085;53.004;6.770;2024-02-14T17:21:11;11.40;99.90
54178;DHT22;40085;53.004;6.770;2024-02-14T17:23:36;11.40;99.90
54178;DHT22;40085;53.004;6.770;2024-02-14T17:26:05;11.30;99.90
54178;DHT22;40085;53.004;6.770;2024-02-14T17:28:33;11.30;99.90
54178;DHT22;40085;53.004;6.770;2024-02-14T17:30:58;11.30;99.90
54178;DHT22;40085;53.004;6.770;2024-02-14T17:33:24;11.30;99.90
54178;DHT22;40085;53.004;6.770;2024-02-14T17:35:50;11.40;99.90
54178;DHT22;40085;53.004;6.770;2024-02-14T17:38:15;11.30;99.90
54178;DHT22;40085;53.004;6.770;2024-02-14T17:40:41;11.30;99.90
54178;DHT22;40085;53.004;6.770;2024-02-14T17:43:06;11.30;99.90
54178;DHT22;40085;53.004;6.770;2024-02-14T17:45:33;11.30;99.90
54178;DHT22;40085;53.004;6.770;2024-02-14T17:48:01;11.30;99.90
54178;DHT22;40085;53.004;6.770;2024-02-14T17:50:27;11.70;99.90
54178;DHT22;40085;53.004;6.770;2024-02-14T17:52:52;11.30;99.90
54178;DHT22;40085;53.004;6.770;2024-02-14T17:55:19;11.30;99.90
54178;DHT22;40085;53.004;6.770;2024-02-14T17:57:57;11.30;99.90
54178;DHT22;40085;53.004;6.770;2024-02-14T18:00:23;11.30;99.90
54178;DHT22;40085;53.004;6.770;2024-02-14T18:02:49;11.30;99.90
54178;DHT22;40085;53.004;6.770;2024-02-14T18:05:15;11.30;99.90
54178;DHT22;40085;53.004;6.770;2024-02-14T18:07:41;11.30;99.90
54178;DHT22;40085;53.004;6.770;2024-02-14T18:10:07;11.30;99.90
54178;DHT22;40085;53.004;6.770;2024-02-14T18:12:33;11.30;99.90
54178;DHT22;40085;53.004;6.770;2024-02-14T18:14:59;11.30;99.90
54178;DHT22;40085;53.004;6.770;2024-02-14T18:17:25;11.30;99.90